sensor_id;sensor_type;location;lat;lon;timestamp;pressure;altitude;pressure_sealevel;temperature
75822;BMP180;64454;51.984;9.838;2023-02-01T00:01:14;100191.00;;;5.80
75822;BMP180;64454;51.984;9.838;2023-02-01T00:03:41;100183.00;;;5.80
75822;BMP180;64454;51.984;9.838;2023-02-01T00:06:08;100186.00;;;5.70
75822;BMP180;64454;51.984;9.838;2023-02-01T00:08:36;100184.00;;;5.70
75822;BMP180;64454;51.984;9.838;2023-02-01T00:11:06;100173.00;;;5.80
75822;BMP180;64454;51.984;9.838;2023-02-01T00:13:36;100160.00;;;5.90
75822;BMP180;64454;51.984;9.838;2023-02-01T00:16:08;100165.00;;;5.80
75822;BMP180;64454;51.984;9.838;2023-02-01T00:18:36;100154.00;;;5.90
75822;BMP180;64454;51.984;9.838;2023-02-01T00:21:03;100157.00;;;5.70
75822;BMP180;64454;51.984;9.838;2023-02-01T00:23:33;100159.00;;;5.80
75822;BMP180;64454;51.984;9.838;2023-02-01T00:26:01;100146.00;;;5.70
75822;BMP180;64454;51.984;9.838;2023-02-01T00:28:29;100147.00;;;5.60
75822;BMP180;64454;51.984;9.838;2023-02-01T00:30:57;100151.00;;;5.60
75822;BMP180;64454;51.984;9.838;2023-02-01T00:33:25;100150.00;;;5.50
75822;BMP180;64454;51.984;9.838;2023-02-01T00:35:57;100138.00;;;5.60
75822;BMP180;64454;51.984;9.838;2023-02-01T00:38:25;100135.00;;;5.70
75822;BMP180;64454;51.984;9.838;2023-02-01T00:40:52;100150.00;;;5.60
75822;BMP180;64454;51.984;9.838;2023-02-01T00:43:18;100140.00;;;5.50
75822;BMP180;64454;51.984;9.838;2023-02-01T00:45:45;100140.00;;;5.50
75822;BMP180;64454;51.984;9.838;2023-02-01T00:48:12;100145.00;;;5.50
75822;BMP180;64454;51.984;9.838;2023-02-01T00:50:43;100148.00;;;5.40
75822;BMP180;64454;51.984;9.838;2023-02-01T00:53:10;100150.00;;;5.50
75822;BMP180;64454;51.984;9.838;2023-02-01T00:55:37;100155.00;;;5.60
75822;BMP180;64454;51.984;9.838;2023-02-01T00:58:04;100142.00;;;5.50
75822;BMP180;64454;51.984;9.838;2023-02-01T01:00:34;100148.00;;;5.60
75822;BMP180;64454;51.984;9.838;2023-02-01T01:03:02;100158.00;;;5.40
75822;BMP180;64454;51.984;9.838;2023-02-01T01:05:44;100137.00;;;5.50
75822;BMP180;64454;51.984;9.838;2023-02-01T01:08:11;100133.00;;;5.40
75822;BMP180;64454;51.984;9.838;2023-02-01T01:10:38;100136.00;;;5.50
75822;BMP180;64454;51.984;9.838;2023-02-01T01:13:06;100140.00;;;5.40
75822;BMP180;64454;51.984;9.838;2023-02-01T01:15:36;100134.00;;;5.50
75822;BMP180;64454;51.984;9.838;2023-02-01T01:18:03;100137.00;;;5.50
75822;BMP180;64454;51.984;9.838;2023-02-01T01:20:30;100140.00;;;5.50
75822;BMP180;64454;51.984;9.838;2023-02-01T01:22:58;100122.00;;;5.40
75822;BMP180;64454;51.984;9.838;2023-02-01T01:25:25;100121.00;;;5.50
75822;BMP180;64454;51.984;9.838;2023-02-01T01:27:51;100115.00;;;5.40
75822;BMP180;64454;51.984;9.838;2023-02-01T01:30:18;100115.00;;;5.20
75822;BMP180;64454;51.984;9.838;2023-02-01T01:32:45;100107.00;;;5.40
75822;BMP180;64454;51.984;9.838;2023-02-01T01:35:12;100109.00;;;5.40
75822;BMP180;64454;51.984;9.838;2023-02-01T01:37:39;100118.00;;;5.40
75822;BMP180;64454;51.984;9.838;2023-02-01T01:40:11;100101.00;;;5.50
75822;BMP180;64454;51.984;9.838;2023-02-01T01:42:39;100097.00;;;5.40
75822;BMP180;64454;51.984;9.838;2023-02-01T01:45:23;100095.00;;;5.50
75822;BMP180;64454;51.984;9.838;2023-02-01T01:47:54;100096.00;;;5.50
75822;BMP180;64454;51.984;9.838;2023-02-01T01:50:29;100094.00;;;5.50
75822;BMP180;64454;51.984;9.838;2023-02-01T01:53:00;100084.00;;;5.50
75822;BMP180;64454;51.984;9.838;2023-02-01T01:55:35;100086.00;;;5.50
75822;BMP180;64454;51.984;9.838;2023-02-01T01:58:07;100095.00;;;5.60
75822;BMP180;64454;51.984;9.838;2023-02-01T02:00:35;100098.00;;;5.60
75822;BMP180;64454;51.984;9.838;2023-02-01T02:03:11;100096.00;;;5.60
75822;BMP180;64454;51.984;9.838;2023-02-01T02:05:38;100100.00;;;5.60
75822;BMP180;64454;51.984;9.838;2023-02-01T02:08:05;100077.00;;;5.60
75822;BMP180;64454;51.984;9.838;2023-02-01T02:10:33;100076.00;;;5.70
75822;BMP180;64454;51.984;9.838;2023-02-01T02:13:18;100089.00;;;5.50
75822;BMP180;64454;51.984;9.838;2023-02-01T02:19:09;100077.00;;;5.50
75822;BMP180;64454;51.984;9.838;2023-02-01T02:22:03;100086.00;;;5.70
75822;BMP180;64454;51.984;9.838;2023-02-01T02:25:14;100077.00;;;5.50
75822;BMP180;64454;51.984;9.838;2023-02-01T02:27:56;100078.00;;;5.60
75822;BMP180;64454;51.984;9.838;2023-02-01T02:31:02;100068.00;;;5.50
75822;BMP180;64454;51.984;9.838;2023-02-01T02:33:53;100066.00;;;5.50
75822;BMP180;64454;51.984;9.838;2023-02-01T02:36:33;100088.00;;;5.50
75822;BMP180;64454;51.984;9.838;2023-02-01T02:39:08;100064.00;;;5.50
75822;BMP180;64454;51.984;9.838;2023-02-01T02:41:54;100048.00;;;5.50
75822;BMP180;64454;51.984;9.838;2023-02-01T02:44:47;100044.00;;;5.50
75822;BMP180;64454;51.984;9.838;2023-02-01T02:47:42;100053.00;;;5.60
75822;BMP180;64454;51.984;9.838;2023-02-01T02:50:20;100062.00;;;5.60
75822;BMP180;64454;51.984;9.838;2023-02-01T02:53:13;100049.00;;;5.60
75822;BMP180;64454;51.984;9.838;2023-02-01T02:55:59;100045.00;;;5.60
75822;BMP180;64454;51.984;9.838;2023-02-01T02:58:46;100045.00;;;5.80
75822;BMP180;64454;51.984;9.838;2023-02-01T03:01:32;100041.00;;;5.60
75822;BMP180;64454;51.984;9.838;2023-02-01T03:04:17;100024.00;;;5.70
75822;BMP180;64454;51.984;9.838;2023-02-01T03:06:45;100020.00;;;5.70
75822;BMP180;64454;51.984;9.838;2023-02-01T03:09:20;100016.00;;;5.70
75822;BMP180;64454;51.984;9.838;2023-02-01T03:11:54;100010.00;;;5.70
75822;BMP180;64454;51.984;9.838;2023-02-01T03:14:44;100013.00;;;5.70
75822;BMP180;64454;51.984;9.838;2023-02-01T03:17:18;100013.00;;;5.80
75822;BMP180;64454;51.984;9.838;2023-02-01T03:19:51;100009.00;;;5.80
75822;BMP180;64454;51.984;9.838;2023-02-01T03:22:24;99999.00;;;5.70
75822;BMP180;64454;51.984;9.838;2023-02-01T03:24:56;100005.00;;;5.90
75822;BMP180;64454;51.984;9.838;2023-02-01T03:27:30;99986.00;;;5.80
75822;BMP180;64454;51.984;9.838;2023-02-01T03:30:04;99992.00;;;5.80
75822;BMP180;64454;51.984;9.838;2023-02-01T03:32:34;99981.00;;;5.70
75822;BMP180;64454;51.984;9.838;2023-02-01T03:35:27;99980.00;;;5.80
75822;BMP180;64454;51.984;9.838;2023-02-01T03:38:04;99984.00;;;5.80
75822;BMP180;64454;51.984;9.838;2023-02-01T03:40:36;99976.00;;;5.90
75822;BMP180;64454;51.984;9.838;2023-02-01T03:43:06;99976.00;;;5.90
75822;BMP180;64454;51.984;9.838;2023-02-01T03:45:41;99997.00;;;6.00
75822;BMP180;64454;51.984;9.838;2023-02-01T03:48:12;99979.00;;;5.90
75822;BMP180;64454;51.984;9.838;2023-02-01T03:50:50;99982.00;;;6.00
75822;BMP180;64454;51.984;9.838;2023-02-01T03:53:23;99985.00;;;5.90
75822;BMP180;64454;51.984;9.838;2023-02-01T03:55:53;99983.00;;;5.90
75822;BMP180;64454;51.984;9.838;2023-02-01T03:58:22;99964.00;;;5.90
75822;BMP180;64454;51.984;9.838;2023-02-01T04:00:53;99959.00;;;5.90
75822;BMP180;64454;51.984;9.838;2023-02-01T04:03:21;99953.00;;;5.90
75822;BMP180;64454;51.984;9.838;2023-02-01T04:05:48;99960.00;;;5.90
75822;BMP180;64454;51.984;9.838;2023-02-01T04:08:16;99954.00;;;5.80
75822;BMP180;64454;51.984;9.838;2023-02-01T04:10:44;99955.00;;;5.90
75822;BMP180;64454;51.984;9.838;2023-02-01T04:13:11;99962.00;;;5.70
75822;BMP180;64454;51.984;9.838;2023-02-01T04:15:38;99955.00;;;5.60
75822;BMP180;64454;51.984;9.838;2023-02-01T04:18:05;99955.00;;;5.70
75822;BMP180;64454;51.984;9.838;2023-02-01T04:20:32;99934.00;;;5.80
75822;BMP180;64454;51.984;9.838;2023-02-01T04:22:59;99961.00;;;5.70
75822;BMP180;64454;51.984;9.838;2023-02-01T04:25:28;99951.00;;;5.70
75822;BMP180;64454;51.984;9.838;2023-02-01T04:27:56;99941.00;;;5.70
75822;BMP180;64454;51.984;9.838;2023-02-01T04:30:23;99930.00;;;5.80
75822;BMP180;64454;51.984;9.838;2023-02-01T04:32:50;99933.00;;;5.80
75822;BMP180;64454;51.984;9.838;2023-02-01T04:35:17;99931.00;;;5.70
75822;BMP180;64454;51.984;9.838;2023-02-01T04:37:44;99911.00;;;5.80
75822;BMP180;64454;51.984;9.838;2023-02-01T04:40:12;99920.00;;;5.70
75822;BMP180;64454;51.984;9.838;2023-02-01T04:42:38;99911.00;;;5.80
75822;BMP180;64454;51.984;9.838;2023-02-01T04:45:08;99914.00;;;5.70
75822;BMP180;64454;51.984;9.838;2023-02-01T04:47:35;99916.00;;;5.80
75822;BMP180;64454;51.984;9.838;2023-02-01T04:50:02;99919.00;;;5.90
75822;BMP180;64454;51.984;9.838;2023-02-01T04:52:29;99901.00;;;5.80
75822;BMP180;64454;51.984;9.838;2023-02-01T04:54:56;99898.00;;;5.80
75822;BMP180;64454;51.984;9.838;2023-02-01T04:57:26;99900.00;;;5.80
75822;BMP180;64454;51.984;9.838;2023-02-01T04:59:52;99898.00;;;5.80
75822;BMP180;64454;51.984;9.838;2023-02-01T05:02:20;99887.00;;;5.80
75822;BMP180;64454;51.984;9.838;2023-02-01T05:04:47;99900.00;;;5.80
75822;BMP180;64454;51.984;9.838;2023-02-01T05:07:14;99882.00;;;5.80
75822;BMP180;64454;51.984;9.838;2023-02-01T05:09:41;99888.00;;;5.80
75822;BMP180;64454;51.984;9.838;2023-02-01T05:12:09;99899.00;;;5.70
75822;BMP180;64454;51.984;9.838;2023-02-01T05:14:54;99883.00;;;5.90
75822;BMP180;64454;51.984;9.838;2023-02-01T05:17:22;99892.00;;;5.90
75822;BMP180;64454;51.984;9.838;2023-02-01T05:19:49;99896.00;;;5.80
75822;BMP180;64454;51.984;9.838;2023-02-01T05:22:16;99896.00;;;5.90
75822;BMP180;64454;51.984;9.838;2023-02-01T05:24:43;99874.00;;;5.90
75822;BMP180;64454;51.984;9.838;2023-02-01T05:27:10;99880.00;;;5.80
75822;BMP180;64454;51.984;9.838;2023-02-01T05:29:36;99883.00;;;5.80
75822;BMP180;64454;51.984;9.838;2023-02-01T05:32:04;99881.00;;;5.60
75822;BMP180;64454;51.984;9.838;2023-02-01T05:34:32;99876.00;;;5.70
75822;BMP180;64454;51.984;9.838;2023-02-01T05:36:59;99870.00;;;5.50
75822;BMP180;64454;51.984;9.838;2023-02-01T05:39:25;99882.00;;;5.60
75822;BMP180;64454;51.984;9.838;2023-02-01T05:41:52;99888.00;;;5.50
75822;BMP180;64454;51.984;9.838;2023-02-01T05:44:19;99882.00;;;5.60
75822;BMP180;64454;51.984;9.838;2023-02-01T05:46:46;99884.00;;;5.40
75822;BMP180;64454;51.984;9.838;2023-02-01T05:49:13;99880.00;;;5.50
75822;BMP180;64454;51.984;9.838;2023-02-01T05:51:41;99879.00;;;5.50
75822;BMP180;64454;51.984;9.838;2023-02-01T05:54:09;99878.00;;;5.40
75822;BMP180;64454;51.984;9.838;2023-02-01T05:56:36;99875.00;;;5.50
75822;BMP180;64454;51.984;9.838;2023-02-01T05:59:03;99881.00;;;5.40
75822;BMP180;64454;51.984;9.838;2023-02-01T06:01:30;99876.00;;;5.40
75822;BMP180;64454;51.984;9.838;2023-02-01T06:03:56;99880.00;;;5.50
75822;BMP180;64454;51.984;9.838;2023-02-01T06:06:23;99878.00;;;5.60
75822;BMP180;64454;51.984;9.838;2023-02-01T06:08:51;99873.00;;;5.40
75822;BMP180;64454;51.984;9.838;2023-02-01T06:11:18;99863.00;;;5.50
75822;BMP180;64454;51.984;9.838;2023-02-01T06:13:45;99866.00;;;5.40
75822;BMP180;64454;51.984;9.838;2023-02-01T06:16:14;99875.00;;;5.40
75822;BMP180;64454;51.984;9.838;2023-02-01T06:18:41;99872.00;;;5.50
75822;BMP180;64454;51.984;9.838;2023-02-01T06:21:08;99882.00;;;5.40
75822;BMP180;64454;51.984;9.838;2023-02-01T06:23:35;99875.00;;;5.40
75822;BMP180;64454;51.984;9.838;2023-02-01T06:26:05;99866.00;;;5.30
75822;BMP180;64454;51.984;9.838;2023-02-01T06:28:33;99860.00;;;5.20
75822;BMP180;64454;51.984;9.838;2023-02-01T06:31:04;99861.00;;;5.30
75822;BMP180;64454;51.984;9.838;2023-02-01T06:33:32;99846.00;;;5.30
75822;BMP180;64454;51.984;9.838;2023-02-01T06:36:01;99854.00;;;5.30
75822;BMP180;64454;51.984;9.838;2023-02-01T06:38:29;99854.00;;;5.30
75822;BMP180;64454;51.984;9.838;2023-02-01T06:40:57;99856.00;;;5.40
75822;BMP180;64454;51.984;9.838;2023-02-01T06:43:27;99868.00;;;5.20
75822;BMP180;64454;51.984;9.838;2023-02-01T06:45:59;99861.00;;;5.20
75822;BMP180;64454;51.984;9.838;2023-02-01T06:48:26;99865.00;;;5.20
75822;BMP180;64454;51.984;9.838;2023-02-01T06:50:53;99870.00;;;5.20
75822;BMP180;64454;51.984;9.838;2023-02-01T06:53:20;99869.00;;;5.20
75822;BMP180;64454;51.984;9.838;2023-02-01T06:55:54;99874.00;;;5.40
75822;BMP180;64454;51.984;9.838;2023-02-01T06:58:21;99873.00;;;5.10
75822;BMP180;64454;51.984;9.838;2023-02-01T07:00:50;99877.00;;;5.20
75822;BMP180;64454;51.984;9.838;2023-02-01T07:03:19;99880.00;;;5.20
75822;BMP180;64454;51.984;9.838;2023-02-01T07:05:46;99884.00;;;5.30
75822;BMP180;64454;51.984;9.838;2023-02-01T07:08:13;99884.00;;;5.30
75822;BMP180;64454;51.984;9.838;2023-02-01T07:10:39;99872.00;;;5.30
75822;BMP180;64454;51.984;9.838;2023-02-01T07:13:06;99863.00;;;5.40
75822;BMP180;64454;51.984;9.838;2023-02-01T07:15:33;99871.00;;;5.40
75822;BMP180;64454;51.984;9.838;2023-02-01T07:18:02;99858.00;;;5.40
75822;BMP180;64454;51.984;9.838;2023-02-01T07:20:29;99867.00;;;5.40
75822;BMP180;64454;51.984;9.838;2023-02-01T07:22:57;99852.00;;;5.50
75822;BMP180;64454;51.984;9.838;2023-02-01T07:25:24;99880.00;;;5.40
75822;BMP180;64454;51.984;9.838;2023-02-01T07:27:51;99886.00;;;5.20
75822;BMP180;64454;51.984;9.838;2023-02-01T07:30:18;99881.00;;;5.40
75822;BMP180;64454;51.984;9.838;2023-02-01T07:32:45;99893.00;;;5.30
75822;BMP180;64454;51.984;9.838;2023-02-01T07:35:13;99899.00;;;5.40
75822;BMP180;64454;51.984;9.838;2023-02-01T07:37:40;99901.00;;;5.40
75822;BMP180;64454;51.984;9.838;2023-02-01T07:40:09;99913.00;;;5.30
75822;BMP180;64454;51.984;9.838;2023-02-01T07:42:36;99902.00;;;5.40
75822;BMP180;64454;51.984;9.838;2023-02-01T07:45:04;99906.00;;;5.40
75822;BMP180;64454;51.984;9.838;2023-02-01T07:47:31;99893.00;;;5.40
75822;BMP180;64454;51.984;9.838;2023-02-01T07:49:58;99896.00;;;5.30
75822;BMP180;64454;51.984;9.838;2023-02-01T07:52:27;99898.00;;;5.50
75822;BMP180;64454;51.984;9.838;2023-02-01T07:54:54;99904.00;;;5.40
75822;BMP180;64454;51.984;9.838;2023-02-01T07:57:21;99895.00;;;5.40
75822;BMP180;64454;51.984;9.838;2023-02-01T07:59:48;99907.00;;;5.60
75822;BMP180;64454;51.984;9.838;2023-02-01T08:02:28;99899.00;;;5.50
75822;BMP180;64454;51.984;9.838;2023-02-01T08:04:55;99915.00;;;5.60
75822;BMP180;64454;51.984;9.838;2023-02-01T08:07:22;99910.00;;;5.50
75822;BMP180;64454;51.984;9.838;2023-02-01T08:09:50;99909.00;;;5.60
75822;BMP180;64454;51.984;9.838;2023-02-01T08:12:17;99911.00;;;5.60
75822;BMP180;64454;51.984;9.838;2023-02-01T08:14:43;99912.00;;;5.70
75822;BMP180;64454;51.984;9.838;2023-02-01T08:17:10;99914.00;;;5.70
75822;BMP180;64454;51.984;9.838;2023-02-01T08:19:37;99910.00;;;5.70
75822;BMP180;64454;51.984;9.838;2023-02-01T08:22:04;99918.00;;;5.70
75822;BMP180;64454;51.984;9.838;2023-02-01T08:24:32;99913.00;;;5.80
75822;BMP180;64454;51.984;9.838;2023-02-01T08:27:02;99926.00;;;5.80
75822;BMP180;64454;51.984;9.838;2023-02-01T08:29:29;99933.00;;;5.90
75822;BMP180;64454;51.984;9.838;2023-02-01T08:31:55;99934.00;;;5.90
75822;BMP180;64454;51.984;9.838;2023-02-01T08:34:23;99937.00;;;6.00
75822;BMP180;64454;51.984;9.838;2023-02-01T08:36:49;99929.00;;;5.90
75822;BMP180;64454;51.984;9.838;2023-02-01T08:39:17;99941.00;;;5.90
75822;BMP180;64454;51.984;9.838;2023-02-01T08:41:44;99951.00;;;6.00
75822;BMP180;64454;51.984;9.838;2023-02-01T08:44:34;99934.00;;;6.10
75822;BMP180;64454;51.984;9.838;2023-02-01T08:47:01;99946.00;;;6.00
75822;BMP180;64454;51.984;9.838;2023-02-01T08:49:28;99946.00;;;6.00
75822;BMP180;64454;51.984;9.838;2023-02-01T08:51:54;99928.00;;;6.10
75822;BMP180;64454;51.984;9.838;2023-02-01T08:54:22;99937.00;;;6.10
75822;BMP180;64454;51.984;9.838;2023-02-01T08:56:49;99937.00;;;5.90
75822;BMP180;64454;51.984;9.838;2023-02-01T08:59:16;99937.00;;;6.10
75822;BMP180;64454;51.984;9.838;2023-02-01T09:01:44;99934.00;;;6.30
75822;BMP180;64454;51.984;9.838;2023-02-01T09:04:11;99938.00;;;6.30
75822;BMP180;64454;51.984;9.838;2023-02-01T09:06:40;99940.00;;;6.30
75822;BMP180;64454;51.984;9.838;2023-02-01T09:09:07;99934.00;;;6.20
75822;BMP180;64454;51.984;9.838;2023-02-01T09:11:34;99936.00;;;6.10
75822;BMP180;64454;51.984;9.838;2023-02-01T09:14:01;99954.00;;;6.20
75822;BMP180;64454;51.984;9.838;2023-02-01T09:16:28;99946.00;;;6.00
75822;BMP180;64454;51.984;9.838;2023-02-01T09:18:56;99945.00;;;6.10
75822;BMP180;64454;51.984;9.838;2023-02-01T09:21:23;99947.00;;;6.20
75822;BMP180;64454;51.984;9.838;2023-02-01T09:23:51;99958.00;;;6.10
75822;BMP180;64454;51.984;9.838;2023-02-01T09:26:18;99954.00;;;6.10
75822;BMP180;64454;51.984;9.838;2023-02-01T09:28:44;99959.00;;;6.00
75822;BMP180;64454;51.984;9.838;2023-02-01T09:31:11;99954.00;;;6.10
75822;BMP180;64454;51.984;9.838;2023-02-01T09:33:38;99941.00;;;6.30
75822;BMP180;64454;51.984;9.838;2023-02-01T09:36:07;99949.00;;;6.30
75822;BMP180;64454;51.984;9.838;2023-02-01T09:38:34;99945.00;;;6.20
75822;BMP180;64454;51.984;9.838;2023-02-01T09:41:01;99949.00;;;6.30
75822;BMP180;64454;51.984;9.838;2023-02-01T09:43:41;99958.00;;;6.30
75822;BMP180;64454;51.984;9.838;2023-02-01T09:46:21;99965.00;;;6.20
75822;BMP180;64454;51.984;9.838;2023-02-01T09:48:53;99963.00;;;6.20
75822;BMP180;64454;51.984;9.838;2023-02-01T09:51:26;99969.00;;;6.20
75822;BMP180;64454;51.984;9.838;2023-02-01T09:54:01;99968.00;;;6.20
75822;BMP180;64454;51.984;9.838;2023-02-01T09:56:36;99952.00;;;6.50
75822;BMP180;64454;51.984;9.838;2023-02-01T09:59:23;99951.00;;;6.40
75822;BMP180;64454;51.984;9.838;2023-02-01T10:01:53;99956.00;;;6.60
75822;BMP180;64454;51.984;9.838;2023-02-01T10:04:20;99944.00;;;6.90
75822;BMP180;64454;51.984;9.838;2023-02-01T10:07:02;99950.00;;;6.90
75822;BMP180;64454;51.984;9.838;2023-02-01T10:09:52;99939.00;;;7.00
75822;BMP180;64454;51.984;9.838;2023-02-01T10:13:00;99951.00;;;6.80
75822;BMP180;64454;51.984;9.838;2023-02-01T10:15:47;99953.00;;;6.90
75822;BMP180;64454;51.984;9.838;2023-02-01T10:18:45;99940.00;;;7.40
75822;BMP180;64454;51.984;9.838;2023-02-01T10:21:28;99931.00;;;7.50
75822;BMP180;64454;51.984;9.838;2023-02-01T10:24:37;99928.00;;;7.50
75822;BMP180;64454;51.984;9.838;2023-02-01T10:27:14;99935.00;;;7.70
75822;BMP180;64454;51.984;9.838;2023-02-01T10:29:44;99939.00;;;8.00
75822;BMP180;64454;51.984;9.838;2023-02-01T10:32:18;99939.00;;;8.30
75822;BMP180;64454;51.984;9.838;2023-02-01T10:34:52;99930.00;;;8.10
75822;BMP180;64454;51.984;9.838;2023-02-01T10:37:27;99942.00;;;7.80
75822;BMP180;64454;51.984;9.838;2023-02-01T10:39:59;99928.00;;;7.90
75822;BMP180;64454;51.984;9.838;2023-02-01T10:42:28;99928.00;;;7.90
75822;BMP180;64454;51.984;9.838;2023-02-01T10:44:59;99936.00;;;7.70
75822;BMP180;64454;51.984;9.838;2023-02-01T10:47:27;99927.00;;;7.50
75822;BMP180;64454;51.984;9.838;2023-02-01T10:50:06;99931.00;;;7.30
75822;BMP180;64454;51.984;9.838;2023-02-01T10:52:46;99931.00;;;7.50
75822;BMP180;64454;51.984;9.838;2023-02-01T10:55:35;99931.00;;;7.30
75822;BMP180;64454;51.984;9.838;2023-02-01T10:58:06;99922.00;;;7.30
75822;BMP180;64454;51.984;9.838;2023-02-01T11:00:42;99905.00;;;7.60
75822;BMP180;64454;51.984;9.838;2023-02-01T11:03:30;99914.00;;;7.80
75822;BMP180;64454;51.984;9.838;2023-02-01T11:05:58;99902.00;;;7.60
75822;BMP180;64454;51.984;9.838;2023-02-01T11:08:26;99909.00;;;7.60
75822;BMP180;64454;51.984;9.838;2023-02-01T11:11:00;99907.00;;;7.60
75822;BMP180;64454;51.984;9.838;2023-02-01T11:13:32;99904.00;;;7.50
75822;BMP180;64454;51.984;9.838;2023-02-01T11:16:05;99906.00;;;7.30
75822;BMP180;64454;51.984;9.838;2023-02-01T11:18:36;99900.00;;;7.30
75822;BMP180;64454;51.984;9.838;2023-02-01T11:21:05;99921.00;;;7.10
75822;BMP180;64454;51.984;9.838;2023-02-01T11:23:39;99895.00;;;7.00
75822;BMP180;64454;51.984;9.838;2023-02-01T11:26:13;99903.00;;;7.10
75822;BMP180;64454;51.984;9.838;2023-02-01T11:28:50;99907.00;;;7.00
75822;BMP180;64454;51.984;9.838;2023-02-01T11:31:19;99912.00;;;6.90
75822;BMP180;64454;51.984;9.838;2023-02-01T11:33:51;99900.00;;;7.10
75822;BMP180;64454;51.984;9.838;2023-02-01T11:36:23;99892.00;;;7.10
75822;BMP180;64454;51.984;9.838;2023-02-01T11:39:07;99887.00;;;7.10
75822;BMP180;64454;51.984;9.838;2023-02-01T11:41:41;99876.00;;;6.80
75822;BMP180;64454;51.984;9.838;2023-02-01T11:44:21;99869.00;;;6.80
75822;BMP180;64454;51.984;9.838;2023-02-01T11:46:49;99867.00;;;6.90
75822;BMP180;64454;51.984;9.838;2023-02-01T11:49:23;99857.00;;;6.90
75822;BMP180;64454;51.984;9.838;2023-02-01T11:52:05;99854.00;;;6.80
75822;BMP180;64454;51.984;9.838;2023-02-01T11:54:54;99850.00;;;6.80
75822;BMP180;64454;51.984;9.838;2023-02-01T11:57:50;99846.00;;;6.80
75822;BMP180;64454;51.984;9.838;2023-02-01T12:00:46;99847.00;;;6.80
75822;BMP180;64454;51.984;9.838;2023-02-01T12:03:59;99843.00;;;6.90
75822;BMP180;64454;51.984;9.838;2023-02-01T12:06:51;99825.00;;;6.80
75822;BMP180;64454;51.984;9.838;2023-02-01T12:09:37;99826.00;;;6.70
75822;BMP180;64454;51.984;9.838;2023-02-01T12:12:17;99825.00;;;6.70
75822;BMP180;64454;51.984;9.838;2023-02-01T12:15:10;99788.00;;;6.90
75822;BMP180;64454;51.984;9.838;2023-02-01T12:17:56;99783.00;;;6.70
75822;BMP180;64454;51.984;9.838;2023-02-01T12:20:56;99785.00;;;7.10
75822;BMP180;64454;51.984;9.838;2023-02-01T12:23:45;99767.00;;;7.20
75822;BMP180;64454;51.984;9.838;2023-02-01T12:26:43;99786.00;;;7.00
75822;BMP180;64454;51.984;9.838;2023-02-01T12:29:39;99779.00;;;7.00
75822;BMP180;64454;51.984;9.838;2023-02-01T12:32:30;99769.00;;;7.30
75822;BMP180;64454;51.984;9.838;2023-02-01T12:35:18;99762.00;;;7.10
75822;BMP180;64454;51.984;9.838;2023-02-01T12:38:06;99756.00;;;7.10
75822;BMP180;64454;51.984;9.838;2023-02-01T12:40:56;99746.00;;;7.20
75822;BMP180;64454;51.984;9.838;2023-02-01T12:43:38;99748.00;;;7.50
75822;BMP180;64454;51.984;9.838;2023-02-01T12:46:15;99749.00;;;7.00
75822;BMP180;64454;51.984;9.838;2023-02-01T12:48:59;99742.00;;;7.10
75822;BMP180;64454;51.984;9.838;2023-02-01T12:51:33;99732.00;;;7.20
75822;BMP180;64454;51.984;9.838;2023-02-01T12:54:08;99742.00;;;6.90
75822;BMP180;64454;51.984;9.838;2023-02-01T12:56:41;99734.00;;;6.90
75822;BMP180;64454;51.984;9.838;2023-02-01T12:59:21;99716.00;;;6.60
75822;BMP180;64454;51.984;9.838;2023-02-01T13:01:54;99726.00;;;6.50
75822;BMP180;64454;51.984;9.838;2023-02-01T13:04:33;99731.00;;;6.70
75822;BMP180;64454;51.984;9.838;2023-02-01T13:07:11;99735.00;;;6.60
75822;BMP180;64454;51.984;9.838;2023-02-01T13:09:47;99723.00;;;6.40
75822;BMP180;64454;51.984;9.838;2023-02-01T13:12:21;99739.00;;;6.30
75822;BMP180;64454;51.984;9.838;2023-02-01T13:14:56;99731.00;;;6.30
75822;BMP180;64454;51.984;9.838;2023-02-01T13:17:27;99737.00;;;6.10
75822;BMP180;64454;51.984;9.838;2023-02-01T13:20:00;99725.00;;;6.00
75822;BMP180;64454;51.984;9.838;2023-02-01T13:22:33;99723.00;;;6.00
75822;BMP180;64454;51.984;9.838;2023-02-01T13:25:04;99723.00;;;5.90
75822;BMP180;64454;51.984;9.838;2023-02-01T13:27:33;99724.00;;;5.90
75822;BMP180;64454;51.984;9.838;2023-02-01T13:30:05;99716.00;;;5.80
75822;BMP180;64454;51.984;9.838;2023-02-01T13:33:03;99705.00;;;6.10
75822;BMP180;64454;51.984;9.838;2023-02-01T13:36:01;99701.00;;;6.10
75822;BMP180;64454;51.984;9.838;2023-02-01T13:41:53;99712.00;;;6.10
75822;BMP180;64454;51.984;9.838;2023-02-01T13:44:28;99710.00;;;6.10
75822;BMP180;64454;51.984;9.838;2023-02-01T13:47:00;99688.00;;;6.10
75822;BMP180;64454;51.984;9.838;2023-02-01T13:49:36;99711.00;;;6.10
75822;BMP180;64454;51.984;9.838;2023-02-01T13:52:22;99715.00;;;6.10
75822;BMP180;64454;51.984;9.838;2023-02-01T13:55:16;99711.00;;;6.00
75822;BMP180;64454;51.984;9.838;2023-02-01T13:57:58;99716.00;;;5.90
75822;BMP180;64454;51.984;9.838;2023-02-01T14:00:28;99711.00;;;5.80
75822;BMP180;64454;51.984;9.838;2023-02-01T14:03:13;99714.00;;;5.50
75822;BMP180;64454;51.984;9.838;2023-02-01T14:06:37;99718.00;;;5.80
75822;BMP180;64454;51.984;9.838;2023-02-01T14:09:30;99708.00;;;5.80
75822;BMP180;64454;51.984;9.838;2023-02-01T14:12:41;99686.00;;;5.60
75822;BMP180;64454;51.984;9.838;2023-02-01T14:15:19;99717.00;;;5.70
75822;BMP180;64454;51.984;9.838;2023-02-01T14:17:49;99734.00;;;5.70
75822;BMP180;64454;51.984;9.838;2023-02-01T14:20:44;99729.00;;;5.70
75822;BMP180;64454;51.984;9.838;2023-02-01T14:23:29;99743.00;;;5.70
75822;BMP180;64454;51.984;9.838;2023-02-01T14:26:14;99739.00;;;5.70
75822;BMP180;64454;51.984;9.838;2023-02-01T14:29:01;99722.00;;;5.70
75822;BMP180;64454;51.984;9.838;2023-02-01T14:31:58;99725.00;;;5.70
75822;BMP180;64454;51.984;9.838;2023-02-01T14:34:35;99757.00;;;5.70
75822;BMP180;64454;51.984;9.838;2023-02-01T14:37:11;99835.00;;;5.50
75822;BMP180;64454;51.984;9.838;2023-02-01T14:39:54;99843.00;;;4.80
75822;BMP180;64454;51.984;9.838;2023-02-01T14:42:26;99841.00;;;4.50
75822;BMP180;64454;51.984;9.838;2023-02-01T14:48:45;99828.00;;;4.00
75822;BMP180;64454;51.984;9.838;2023-02-01T14:51:16;99826.00;;;4.10
75822;BMP180;64454;51.984;9.838;2023-02-01T14:53:45;99829.00;;;4.10
75822;BMP180;64454;51.984;9.838;2023-02-01T14:56:16;99842.00;;;4.00
75822;BMP180;64454;51.984;9.838;2023-02-01T14:58:55;99841.00;;;4.20
75822;BMP180;64454;51.984;9.838;2023-02-01T15:01:25;99836.00;;;4.30
75822;BMP180;64454;51.984;9.838;2023-02-01T15:04:03;99848.00;;;4.40
75822;BMP180;64454;51.984;9.838;2023-02-01T15:06:37;99844.00;;;4.30